createdAt,value
2023-03-05T00:00:14.332Z,99.9
2023-03-05T00:10:27.118Z,99.9
2023-03-05T00:15:33.492Z,99.9
2023-03-05T00:21:03.970Z,99.9
2023-03-05T00:25:46.247Z,99.9
2023-03-05T00:36:19.210Z,99.9
2023-03-05T00:41:05.521Z,99.9
2023-03-05T00:51:53.370Z,99.9
2023-03-05T00:56:59.720Z,99.9
2023-03-05T01:07:47.651Z,99.9
2023-03-05T01:13:29.060Z,99.9
2023-03-05T01:18:36.433Z,99.9
2023-03-05T01:23:42.877Z,99.9
2023-03-05T01:28:49.352Z,99.9
2023-03-05T01:33:45.729Z,99.9
2023-03-05T01:39:02.262Z,99.9
2023-03-05T01:44:08.648Z,99.9
2023-03-05T01:49:16.252Z,99.9
2023-03-05T01:59:29.016Z,99.9
2023-03-05T02:05:54.593Z,99.9
2023-03-05T02:10:17.917Z,99.9
2023-03-05T02:15:24.250Z,99.9
2023-03-05T02:20:30.772Z,99.9
2023-03-05T02:25:41.192Z,99.9
2023-03-05T02:51:08.078Z,99.9
2023-03-05T02:57:48.861Z,99.9
2023-03-05T03:02:40.157Z,99.9
2023-03-05T03:07:18.469Z,99.9
2023-03-05T03:12:24.843Z,99.9
2023-03-05T03:17:31.276Z,99.9
2023-03-05T03:22:41.625Z,99.9
2023-03-05T03:27:43.995Z,99.9
2023-03-05T03:32:50.399Z,99.9
2023-03-05T03:37:56.743Z,99.9
2023-03-05T03:43:03.127Z,99.9
2023-03-05T03:48:29.530Z,99.9
2023-03-05T03:54:27.976Z,99.9
2023-03-05T03:58:46.424Z,99.9
2023-03-05T04:03:28.730Z,99.9
2023-03-05T04:09:02.724Z,99.9
2023-03-05T04:15:57.201Z,99.9
2023-03-05T04:19:11.445Z,99.9
2023-03-05T04:23:57.814Z,99.9
2023-03-05T04:30:16.349Z,99.9
2023-03-05T04:34:54.657Z,99.9
2023-03-05T04:39:36.990Z,99.9
2023-03-05T04:45:07.401Z,99.9
2023-03-05T04:49:44.006Z,99.9
2023-03-05T04:55:00.385Z,99.9
2023-03-05T04:59:42.722Z,99.9
2023-03-05T05:04:49.167Z,99.9
2023-03-05T05:10:19.545Z,99.9
2023-03-05T05:15:26.050Z,99.9
2023-03-05T05:20:08.428Z,99.9
2023-03-05T05:25:14.870Z,99.9
2023-03-05T05:30:25.258Z,99.9
2023-03-05T05:35:17.797Z,99.9
2023-03-05T05:40:38.027Z,99.9
2023-03-05T05:45:40.542Z,99.9
2023-03-05T05:50:46.847Z,99.9
2023-03-05T05:56:58.322Z,99.9
2023-03-05T06:01:45.710Z,99.9
2023-03-05T06:06:42.113Z,99.9
2023-03-05T06:11:58.513Z,99.9
2023-03-05T06:17:04.875Z,99.9
2023-03-05T06:22:11.291Z,99.9
2023-03-05T06:27:17.626Z,99.9
2023-03-05T06:32:24.253Z,99.9
2023-03-05T06:37:30.553Z,99.9
2023-03-05T06:42:40.456Z,99.9
2023-03-05T06:47:36.832Z,99.9
2023-03-05T06:52:43.240Z,99.9
2023-03-05T06:57:59.627Z,99.9
2023-03-05T07:03:06.029Z,99.9
2023-03-05T07:08:12.442Z,99.9
2023-03-05T07:13:18.815Z,99.9
2023-03-05T07:18:25.230Z,99.9
2023-03-05T07:23:31.623Z,99.9
2023-03-05T07:33:44.353Z,99.9
2023-03-05T07:38:50.754Z,99.9
2023-03-05T07:43:57.352Z,99.9
2023-03-05T07:54:10.150Z,99.9
2023-03-05T07:59:16.492Z,99.9
2023-03-05T08:04:22.910Z,99.9
2023-03-05T08:09:29.267Z,99.9
2023-03-05T08:14:35.626Z,99.9
2023-03-05T08:19:45.309Z,99.9
2023-03-05T08:30:02.143Z,99.9
2023-03-05T08:35:04.457Z,99.9
2023-03-05T08:40:10.873Z,99.9
2023-03-05T08:45:17.227Z,99.9
2023-03-05T08:50:23.668Z,99.9
2023-03-05T08:55:30.002Z,99.9
2023-03-05T09:00:36.406Z,99.9
2023-03-05T09:10:49.163Z,99.9
2023-03-05T09:15:45.505Z,99.9
2023-03-05T09:21:04.995Z,99.9
2023-03-05T09:26:01.483Z,99.9
2023-03-05T09:31:17.944Z,99.9
2023-03-05T09:36:24.855Z,99.9
2023-03-05T09:41:21.227Z,99.9
2023-03-05T09:47:05.204Z,99.9
2023-03-05T09:52:07.589Z,99.9
2023-03-05T09:56:53.941Z,99.9
2023-03-05T10:02:00.311Z,99.9
2023-03-05T10:06:56.667Z,99.9
2023-03-05T10:12:13.091Z,99.9
2023-03-05T10:22:25.921Z,99.1
2023-03-05T10:27:54.195Z,98.2
2023-03-05T10:32:38.758Z,97.5
2023-03-05T10:37:45.117Z,97.6
2023-03-05T10:42:51.505Z,97.9
2023-03-05T10:47:57.918Z,98.0
2023-03-05T10:53:04.280Z,98.2
2023-03-05T10:58:30.708Z,98.5
2023-03-05T11:03:37.092Z,98.3
2023-03-05T11:08:43.446Z,97.9
2023-03-05T11:13:53.948Z,97.2
2023-03-05T11:23:43.268Z,95.5
2023-03-05T11:28:49.590Z,95.0
2023-03-05T11:34:16.013Z,95.1
2023-03-05T11:39:02.386Z,95.2
2023-03-05T11:44:08.744Z,95.1
2023-03-05T11:49:15.180Z,94.0
2023-03-05T11:54:22.723Z,94.2
2023-03-05T11:59:29.295Z,93.2
2023-03-05T12:04:59.762Z,93.4
2023-03-05T12:09:42.403Z,92.7
2023-03-05T12:20:18.906Z,92.4
2023-03-05T12:25:01.345Z,92.4
2023-03-05T12:30:07.695Z,92.5
2023-03-05T12:35:14.074Z,92.8
2023-03-05T12:40:20.500Z,92.8
2023-03-05T12:45:26.868Z,92.7
2023-03-05T12:50:33.252Z,92.8
2023-03-05T12:55:43.675Z,92.9
2023-03-05T13:01:14.211Z,92.9
2023-03-05T13:05:52.455Z,93.2
2023-03-05T13:10:48.817Z,93.3
2023-03-05T13:16:05.209Z,93.2
2023-03-05T13:26:19.725Z,93.9
2023-03-05T13:36:36.645Z,94.2
2023-03-05T13:41:39.057Z,94.1
2023-03-05T13:46:45.407Z,94.2
2023-03-05T13:51:51.805Z,94.4
2023-03-05T13:56:48.289Z,94.7
2023-03-05T14:02:04.662Z,94.6
2023-03-05T14:07:11.158Z,94.5
2023-03-05T14:12:17.836Z,94.8
2023-03-05T14:17:23.919Z,94.5
2023-03-05T14:22:20.272Z,94.6
2023-03-05T14:27:36.696Z,94.5
2023-03-05T14:32:46.682Z,94.9
2023-03-05T14:37:53.054Z,94.4
2023-03-05T14:43:33.571Z,94.4
2023-03-05T14:48:41.058Z,94.6
2023-03-05T14:53:47.744Z,94.5
2023-03-05T14:58:43.819Z,94.7
2023-03-05T15:04:00.218Z,94.7
2023-03-05T15:15:07.221Z,94.9
2023-03-05T15:19:54.538Z,94.9
2023-03-05T15:25:00.911Z,95.0
2023-03-05T15:30:07.295Z,95.0
2023-03-05T15:35:13.721Z,95.3
2023-03-05T15:40:20.107Z,95.3
2023-03-05T15:45:16.591Z,95.7
2023-03-05T15:50:33.096Z,95.8
2023-03-05T15:55:42.998Z,95.9
2023-03-05T16:00:49.381Z,95.9
2023-03-05T16:05:55.830Z,95.7
2023-03-05T16:11:02.157Z,95.6
2023-03-05T16:16:10.123Z,95.5
2023-03-05T16:21:16.628Z,95.6
2023-03-05T16:26:23.081Z,95.7
2023-03-05T16:31:29.690Z,95.6
2023-03-05T16:36:37.540Z,95.5
2023-03-05T16:41:43.907Z,95.6
2023-03-05T16:46:40.380Z,95.6
2023-03-05T16:51:59.383Z,95.7
2023-03-05T16:57:03.145Z,95.7
2023-03-05T17:02:09.723Z,95.7
2023-03-05T17:07:16.137Z,95.7
2023-03-05T17:17:29.432Z,95.9
2023-03-05T17:22:36.851Z,95.7
2023-03-05T17:27:43.200Z,95.7
2023-03-05T17:32:49.565Z,95.9
2023-03-05T17:37:55.961Z,95.9
2023-03-05T17:43:02.311Z,95.8
2023-03-05T17:47:58.893Z,95.9
2023-03-05T17:53:15.066Z,95.9
2023-03-05T17:58:21.426Z,95.9
2023-03-05T18:03:17.962Z,96.0
2023-03-05T18:08:34.488Z,96.1
2023-03-05T18:13:40.854Z,96.1
2023-03-05T18:18:47.240Z,96.2
2023-03-05T18:23:53.651Z,96.1
2023-03-05T18:29:00.012Z,96.2
2023-03-05T18:34:06.388Z,96.3
2023-03-05T18:39:12.920Z,96.4
2023-03-05T18:44:20.746Z,96.5
2023-03-05T18:49:27.895Z,96.5
2023-03-05T18:54:34.400Z,96.6
2023-03-05T18:59:54.768Z,96.6
2023-03-05T19:04:47.128Z,96.7
2023-03-05T19:09:53.530Z,96.8
2023-03-05T19:14:59.887Z,96.8
2023-03-05T19:20:06.335Z,96.8
2023-03-05T19:25:13.253Z,96.8
2023-03-05T19:30:19.709Z,97.1
2023-03-05T19:35:26.117Z,96.8
2023-03-05T19:40:32.496Z,96.9
2023-03-05T19:45:38.858Z,96.8
2023-03-05T19:50:44.612Z,97.0
2023-03-05T19:55:53.571Z,96.8
2023-03-05T20:00:59.001Z,96.9
2023-03-05T20:07:06.758Z,96.9
2023-03-05T20:11:13.076Z,97.1
2023-03-05T20:16:19.591Z,97.0
2023-03-05T20:21:25.875Z,97.1
2023-03-05T20:26:32.253Z,97.1
2023-03-05T20:31:58.781Z,97.1
2023-03-05T20:36:45.039Z,97.1
2023-03-05T20:41:51.405Z,97.1
2023-03-05T20:46:59.420Z,97.2
2023-03-05T20:52:05.716Z,97.2
2023-03-05T20:57:12.124Z,97.3
2023-03-05T21:02:07.884Z,97.3
2023-03-05T21:07:26.905Z,97.2
2023-03-05T21:12:33.450Z,97.3
2023-03-05T21:17:39.961Z,97.4
2023-03-05T21:22:46.321Z,97.4
2023-03-05T21:27:52.778Z,97.4
2023-03-05T21:32:59.117Z,97.4
2023-03-05T21:38:05.612Z,97.4
2023-03-05T21:43:12.122Z,97.4
2023-03-05T21:48:18.456Z,97.4
2023-03-05T21:53:26.530Z,97.5
2023-03-05T21:58:32.969Z,97.5
2023-03-05T22:03:39.334Z,97.5
2023-03-05T22:08:45.638Z,97.6
2023-03-05T22:13:42.107Z,97.6
2023-03-05T22:18:48.460Z,97.8
2023-03-05T22:24:04.921Z,97.6
2023-03-05T22:29:11.425Z,97.6
2023-03-05T22:34:19.562Z,97.6
2023-03-05T22:39:25.940Z,97.7
2023-03-05T22:44:32.354Z,97.6
2023-03-05T22:49:38.699Z,97.7
2023-03-05T22:54:48.657Z,97.8
2023-03-05T22:59:54.100Z,97.8
2023-03-05T23:05:01.576Z,97.8
2023-03-05T23:10:07.949Z,97.8
2023-03-05T23:15:14.342Z,97.9
2023-03-05T23:20:20.688Z,97.9
2023-03-05T23:25:27.058Z,97.8
2023-03-05T23:30:33.469Z,97.9
2023-03-05T23:35:39.885Z,97.9
2023-03-05T23:40:46.476Z,97.9
2023-03-05T23:45:52.891Z,98.1
2023-03-05T23:50:59.246Z,98.1
2023-03-05T23:56:05.619Z,98.2
